sensor_id;sensor_type;location;lat;lon;timestamp;P1;durP1;ratioP1;P2;durP2;ratioP2
71288;SDS011;59068;52.502;9.860;2023-07-13T00:00:35;1.80;;;1.40;;
71288;SDS011;59068;52.502;9.860;2023-07-13T00:03:01;1.50;;;1.30;;
71288;SDS011;59068;52.502;9.860;2023-07-13T00:05:27;2.00;;;1.40;;
71288;SDS011;59068;52.502;9.860;2023-07-13T00:07:52;1.97;;;1.47;;
71288;SDS011;59068;52.502;9.860;2023-07-13T00:10:17;1.83;;;1.60;;
71288;SDS011;59068;52.502;9.860;2023-07-13T00:12:43;2.77;;;1.80;;
71288;SDS011;59068;52.502;9.860;2023-07-13T00:15:12;2.17;;;1.33;;
71288;SDS011;59068;52.502;9.860;2023-07-13T00:17:41;1.50;;;1.40;;
71288;SDS011;59068;52.502;9.860;2023-07-13T00:20:06;1.90;;;1.47;;
71288;SDS011;59068;52.502;9.860;2023-07-13T00:22:32;3.37;;;1.67;;
71288;SDS011;59068;52.502;9.860;2023-07-13T00:24:58;2.27;;;1.57;;
71288;SDS011;59068;52.502;9.860;2023-07-13T00:27:24;1.70;;;1.60;;
71288;SDS011;59068;52.502;9.860;2023-07-13T00:29:51;2.63;;;1.60;;
71288;SDS011;59068;52.502;9.860;2023-07-13T00:32:17;1.70;;;1.40;;
71288;SDS011;59068;52.502;9.860;2023-07-13T00:34:43;2.57;;;1.67;;
71288;SDS011;59068;52.502;9.860;2023-07-13T00:37:08;1.93;;;1.70;;
71288;SDS011;59068;52.502;9.860;2023-07-13T00:39:34;2.13;;;1.80;;
71288;SDS011;59068;52.502;9.860;2023-07-13T00:42:00;2.23;;;1.70;;
71288;SDS011;59068;52.502;9.860;2023-07-13T00:44:26;2.27;;;1.60;;
71288;SDS011;59068;52.502;9.860;2023-07-13T00:46:51;3.20;;;1.60;;
71288;SDS011;59068;52.502;9.860;2023-07-13T00:49:18;1.97;;;1.50;;
71288;SDS011;59068;52.502;9.860;2023-07-13T00:51:59;1.53;;;1.40;;
71288;SDS011;59068;52.502;9.860;2023-07-13T00:54:34;2.30;;;1.33;;
71288;SDS011;59068;52.502;9.860;2023-07-13T00:57:03;2.50;;;1.50;;
71288;SDS011;59068;52.502;9.860;2023-07-13T00:59:31;2.07;;;1.43;;
71288;SDS011;59068;52.502;9.860;2023-07-13T01:01:56;1.87;;;1.60;;
71288;SDS011;59068;52.502;9.860;2023-07-13T01:04:23;1.63;;;1.50;;
71288;SDS011;59068;52.502;9.860;2023-07-13T01:06:49;2.00;;;1.63;;
71288;SDS011;59068;52.502;9.860;2023-07-13T01:09:15;2.90;;;1.73;;
71288;SDS011;59068;52.502;9.860;2023-07-13T01:11:41;1.90;;;1.70;;
71288;SDS011;59068;52.502;9.860;2023-07-13T01:14:07;2.07;;;1.67;;
71288;SDS011;59068;52.502;9.860;2023-07-13T01:16:34;2.30;;;1.80;;
71288;SDS011;59068;52.502;9.860;2023-07-13T01:19:00;2.30;;;1.60;;
71288;SDS011;59068;52.502;9.860;2023-07-13T01:21:29;2.03;;;1.83;;
71288;SDS011;59068;52.502;9.860;2023-07-13T01:23:55;2.77;;;1.80;;
71288;SDS011;59068;52.502;9.860;2023-07-13T01:26:20;2.20;;;1.90;;
71288;SDS011;59068;52.502;9.860;2023-07-13T01:28:46;1.80;;;1.70;;
71288;SDS011;59068;52.502;9.860;2023-07-13T01:31:11;1.90;;;1.43;;
71288;SDS011;59068;52.502;9.860;2023-07-13T01:33:38;2.40;;;1.63;;
71288;SDS011;59068;52.502;9.860;2023-07-13T01:36:04;1.90;;;1.70;;
71288;SDS011;59068;52.502;9.860;2023-07-13T01:38:31;2.33;;;1.80;;
71288;SDS011;59068;52.502;9.860;2023-07-13T01:40:56;2.77;;;1.70;;
71288;SDS011;59068;52.502;9.860;2023-07-13T01:43:21;2.50;;;1.90;;
71288;SDS011;59068;52.502;9.860;2023-07-13T01:45:47;2.53;;;1.77;;
71288;SDS011;59068;52.502;9.860;2023-07-13T01:48:12;1.93;;;1.70;;
71288;SDS011;59068;52.502;9.860;2023-07-13T01:50:38;2.20;;;2.00;;
71288;SDS011;59068;52.502;9.860;2023-07-13T01:53:03;2.57;;;1.90;;
71288;SDS011;59068;52.502;9.860;2023-07-13T01:55:29;4.30;;;2.10;;
71288;SDS011;59068;52.502;9.860;2023-07-13T01:57:55;1.70;;;1.60;;
71288;SDS011;59068;52.502;9.860;2023-07-13T02:00:20;1.97;;;1.70;;
71288;SDS011;59068;52.502;9.860;2023-07-13T02:02:46;2.30;;;1.70;;
71288;SDS011;59068;52.502;9.860;2023-07-13T02:05:11;2.90;;;1.80;;
71288;SDS011;59068;52.502;9.860;2023-07-13T02:07:37;2.37;;;1.80;;
71288;SDS011;59068;52.502;9.860;2023-07-13T02:10:04;3.07;;;2.00;;
71288;SDS011;59068;52.502;9.860;2023-07-13T02:12:30;1.70;;;1.60;;
71288;SDS011;59068;52.502;9.860;2023-07-13T02:14:56;2.00;;;1.80;;
71288;SDS011;59068;52.502;9.860;2023-07-13T02:17:21;1.80;;;1.70;;
71288;SDS011;59068;52.502;9.860;2023-07-13T02:19:46;2.13;;;1.43;;
71288;SDS011;59068;52.502;9.860;2023-07-13T02:22:12;3.00;;;2.03;;
71288;SDS011;59068;52.502;9.860;2023-07-13T02:24:37;1.93;;;1.73;;
71288;SDS011;59068;52.502;9.860;2023-07-13T02:27:03;1.97;;;1.87;;
71288;SDS011;59068;52.502;9.860;2023-07-13T02:29:29;2.77;;;1.83;;
71288;SDS011;59068;52.502;9.860;2023-07-13T02:31:54;2.87;;;1.83;;
71288;SDS011;59068;52.502;9.860;2023-07-13T02:34:19;2.00;;;1.90;;
71288;SDS011;59068;52.502;9.860;2023-07-13T02:36:45;2.60;;;2.00;;
71288;SDS011;59068;52.502;9.860;2023-07-13T02:39:11;2.60;;;1.87;;
71288;SDS011;59068;52.502;9.860;2023-07-13T02:41:37;2.20;;;2.00;;
71288;SDS011;59068;52.502;9.860;2023-07-13T02:44:02;3.67;;;2.10;;
71288;SDS011;59068;52.502;9.860;2023-07-13T02:46:35;4.50;;;2.47;;
71288;SDS011;59068;52.502;9.860;2023-07-13T02:49:01;3.97;;;2.40;;
71288;SDS011;59068;52.502;9.860;2023-07-13T02:51:27;2.70;;;2.23;;
71288;SDS011;59068;52.502;9.860;2023-07-13T02:53:52;3.63;;;2.00;;
71288;SDS011;59068;52.502;9.860;2023-07-13T02:56:22;2.97;;;2.17;;
71288;SDS011;59068;52.502;9.860;2023-07-13T02:58:48;2.83;;;2.50;;
71288;SDS011;59068;52.502;9.860;2023-07-13T03:01:14;2.93;;;2.00;;
71288;SDS011;59068;52.502;9.860;2023-07-13T03:03:43;2.53;;;2.17;;
71288;SDS011;59068;52.502;9.860;2023-07-13T03:06:08;1.80;;;1.60;;
71288;SDS011;59068;52.502;9.860;2023-07-13T03:08:33;3.10;;;1.90;;
71288;SDS011;59068;52.502;9.860;2023-07-13T03:11:00;4.53;;;2.13;;
71288;SDS011;59068;52.502;9.860;2023-07-13T03:13:26;2.63;;;1.97;;
71288;SDS011;59068;52.502;9.860;2023-07-13T03:15:51;2.77;;;1.70;;
71288;SDS011;59068;52.502;9.860;2023-07-13T03:18:16;3.33;;;2.07;;
71288;SDS011;59068;52.502;9.860;2023-07-13T03:20:42;3.80;;;2.10;;
71288;SDS011;59068;52.502;9.860;2023-07-13T03:23:07;3.33;;;1.90;;
71288;SDS011;59068;52.502;9.860;2023-07-13T03:25:32;2.93;;;1.70;;
71288;SDS011;59068;52.502;9.860;2023-07-13T03:27:58;3.27;;;1.83;;
71288;SDS011;59068;52.502;9.860;2023-07-13T03:30:23;1.70;;;1.60;;
71288;SDS011;59068;52.502;9.860;2023-07-13T03:32:48;3.43;;;1.80;;
71288;SDS011;59068;52.502;9.860;2023-07-13T03:35:14;2.43;;;1.90;;
71288;SDS011;59068;52.502;9.860;2023-07-13T03:37:39;2.17;;;1.70;;
71288;SDS011;59068;52.502;9.860;2023-07-13T03:40:07;2.73;;;1.80;;
71288;SDS011;59068;52.502;9.860;2023-07-13T03:42:34;1.70;;;1.60;;
71288;SDS011;59068;52.502;9.860;2023-07-13T03:44:59;1.87;;;1.70;;
71288;SDS011;59068;52.502;9.860;2023-07-13T03:47:25;2.93;;;1.47;;
71288;SDS011;59068;52.502;9.860;2023-07-13T03:49:50;3.53;;;1.50;;
71288;SDS011;59068;52.502;9.860;2023-07-13T03:52:15;3.80;;;2.10;;
71288;SDS011;59068;52.502;9.860;2023-07-13T03:54:41;2.30;;;1.50;;
71288;SDS011;59068;52.502;9.860;2023-07-13T03:57:06;2.13;;;1.50;;
71288;SDS011;59068;52.502;9.860;2023-07-13T03:59:31;3.37;;;1.60;;
71288;SDS011;59068;52.502;9.860;2023-07-13T04:01:57;1.97;;;1.43;;
71288;SDS011;59068;52.502;9.860;2023-07-13T04:04:22;3.87;;;1.90;;
71288;SDS011;59068;52.502;9.860;2023-07-13T04:06:47;2.93;;;1.93;;
71288;SDS011;59068;52.502;9.860;2023-07-13T04:09:13;3.20;;;1.80;;
71288;SDS011;59068;52.502;9.860;2023-07-13T04:11:38;2.70;;;1.80;;
71288;SDS011;59068;52.502;9.860;2023-07-13T04:14:04;4.80;;;1.90;;
71288;SDS011;59068;52.502;9.860;2023-07-13T04:16:29;3.87;;;1.93;;
71288;SDS011;59068;52.502;9.860;2023-07-13T04:18:55;2.80;;;1.70;;
71288;SDS011;59068;52.502;9.860;2023-07-13T04:21:24;1.90;;;1.50;;
71288;SDS011;59068;52.502;9.860;2023-07-13T04:23:51;2.30;;;1.50;;
71288;SDS011;59068;52.502;9.860;2023-07-13T04:26:16;3.00;;;1.60;;
71288;SDS011;59068;52.502;9.860;2023-07-13T04:28:41;3.17;;;1.57;;
71288;SDS011;59068;52.502;9.860;2023-07-13T04:31:06;2.33;;;1.47;;
71288;SDS011;59068;52.502;9.860;2023-07-13T04:33:32;1.73;;;1.60;;
71288;SDS011;59068;52.502;9.860;2023-07-13T04:35:57;3.07;;;1.50;;
71288;SDS011;59068;52.502;9.860;2023-07-13T04:38:24;1.33;;;1.23;;
71288;SDS011;59068;52.502;9.860;2023-07-13T04:40:53;2.17;;;1.30;;
71288;SDS011;59068;52.502;9.860;2023-07-13T04:43:22;3.33;;;1.47;;
71288;SDS011;59068;52.502;9.860;2023-07-13T04:45:49;2.57;;;1.50;;
71288;SDS011;59068;52.502;9.860;2023-07-13T04:48:15;1.67;;;1.40;;
71288;SDS011;59068;52.502;9.860;2023-07-13T04:50:41;2.67;;;1.30;;
71288;SDS011;59068;52.502;9.860;2023-07-13T04:53:06;3.77;;;1.50;;
71288;SDS011;59068;52.502;9.860;2023-07-13T04:55:31;2.83;;;1.37;;
71288;SDS011;59068;52.502;9.860;2023-07-13T04:58:00;1.67;;;1.10;;
71288;SDS011;59068;52.502;9.860;2023-07-13T05:00:26;3.70;;;1.30;;
71288;SDS011;59068;52.502;9.860;2023-07-13T05:02:51;2.90;;;1.50;;
71288;SDS011;59068;52.502;9.860;2023-07-13T05:05:19;2.90;;;1.23;;
71288;SDS011;59068;52.502;9.860;2023-07-13T05:07:44;1.70;;;1.23;;
71288;SDS011;59068;52.502;9.860;2023-07-13T05:10:09;2.20;;;1.43;;
71288;SDS011;59068;52.502;9.860;2023-07-13T05:12:35;2.60;;;1.60;;
71288;SDS011;59068;52.502;9.860;2023-07-13T05:15:01;2.43;;;1.60;;
71288;SDS011;59068;52.502;9.860;2023-07-13T05:17:27;3.03;;;1.83;;
71288;SDS011;59068;52.502;9.860;2023-07-13T05:19:52;2.40;;;1.60;;
71288;SDS011;59068;52.502;9.860;2023-07-13T05:22:17;3.57;;;1.67;;
71288;SDS011;59068;52.502;9.860;2023-07-13T05:24:43;4.30;;;1.77;;
71288;SDS011;59068;52.502;9.860;2023-07-13T05:27:08;2.57;;;1.50;;
71288;SDS011;59068;52.502;9.860;2023-07-13T05:29:33;4.40;;;1.80;;
71288;SDS011;59068;52.502;9.860;2023-07-13T05:31:59;3.17;;;1.43;;
71288;SDS011;59068;52.502;9.860;2023-07-13T05:34:24;4.00;;;1.77;;
71288;SDS011;59068;52.502;9.860;2023-07-13T05:36:50;3.13;;;2.07;;
71288;SDS011;59068;52.502;9.860;2023-07-13T05:39:16;4.33;;;1.90;;
71288;SDS011;59068;52.502;9.860;2023-07-13T05:41:41;3.73;;;1.93;;
71288;SDS011;59068;52.502;9.860;2023-07-13T05:44:06;4.50;;;1.73;;
71288;SDS011;59068;52.502;9.860;2023-07-13T05:46:32;2.53;;;1.43;;
71288;SDS011;59068;52.502;9.860;2023-07-13T05:48:57;4.00;;;1.90;;
71288;SDS011;59068;52.502;9.860;2023-07-13T05:51:22;3.07;;;1.67;;
71288;SDS011;59068;52.502;9.860;2023-07-13T05:53:48;2.27;;;1.50;;
71288;SDS011;59068;52.502;9.860;2023-07-13T05:56:13;2.07;;;1.50;;
71288;SDS011;59068;52.502;9.860;2023-07-13T05:58:38;3.40;;;1.50;;
71288;SDS011;59068;52.502;9.860;2023-07-13T06:01:05;5.93;;;1.43;;
71288;SDS011;59068;52.502;9.860;2023-07-13T06:03:32;4.13;;;1.47;;
71288;SDS011;59068;52.502;9.860;2023-07-13T06:05:58;3.83;;;1.43;;
71288;SDS011;59068;52.502;9.860;2023-07-13T06:08:25;3.50;;;1.60;;
71288;SDS011;59068;52.502;9.860;2023-07-13T06:10:51;5.43;;;1.80;;
71288;SDS011;59068;52.502;9.860;2023-07-13T06:13:16;2.57;;;1.27;;
71288;SDS011;59068;52.502;9.860;2023-07-13T06:15:41;3.03;;;1.43;;
71288;SDS011;59068;52.502;9.860;2023-07-13T06:18:07;3.97;;;1.77;;
71288;SDS011;59068;52.502;9.860;2023-07-13T06:20:33;2.73;;;1.50;;
71288;SDS011;59068;52.502;9.860;2023-07-13T06:22:59;6.07;;;2.40;;
71288;SDS011;59068;52.502;9.860;2023-07-13T06:25:25;4.00;;;1.67;;
71288;SDS011;59068;52.502;9.860;2023-07-13T06:27:51;5.77;;;1.87;;
71288;SDS011;59068;52.502;9.860;2023-07-13T06:30:16;2.50;;;1.53;;
71288;SDS011;59068;52.502;9.860;2023-07-13T06:32:42;4.27;;;1.70;;
71288;SDS011;59068;52.502;9.860;2023-07-13T06:35:07;3.13;;;1.40;;
71288;SDS011;59068;52.502;9.860;2023-07-13T06:37:33;4.10;;;1.63;;
71288;SDS011;59068;52.502;9.860;2023-07-13T06:39:59;4.23;;;2.00;;
71288;SDS011;59068;52.502;9.860;2023-07-13T06:42:24;4.83;;;1.77;;
71288;SDS011;59068;52.502;9.860;2023-07-13T06:44:49;4.27;;;1.63;;
71288;SDS011;59068;52.502;9.860;2023-07-13T06:47:15;3.87;;;1.70;;
71288;SDS011;59068;52.502;9.860;2023-07-13T06:49:40;4.43;;;1.67;;
71288;SDS011;59068;52.502;9.860;2023-07-13T06:52:05;2.20;;;1.50;;
71288;SDS011;59068;52.502;9.860;2023-07-13T06:54:31;2.70;;;1.70;;
71288;SDS011;59068;52.502;9.860;2023-07-13T06:56:56;3.00;;;1.80;;
71288;SDS011;59068;52.502;9.860;2023-07-13T06:59:21;5.33;;;1.77;;
71288;SDS011;59068;52.502;9.860;2023-07-13T07:01:47;2.17;;;1.30;;
71288;SDS011;59068;52.502;9.860;2023-07-13T07:04:12;6.00;;;1.80;;
71288;SDS011;59068;52.502;9.860;2023-07-13T07:06:37;3.17;;;1.50;;
71288;SDS011;59068;52.502;9.860;2023-07-13T07:09:03;3.73;;;1.37;;
71288;SDS011;59068;52.502;9.860;2023-07-13T07:11:28;2.17;;;1.43;;
71288;SDS011;59068;52.502;9.860;2023-07-13T07:13:54;3.17;;;1.57;;
71288;SDS011;59068;52.502;9.860;2023-07-13T07:16:20;3.63;;;1.80;;
71288;SDS011;59068;52.502;9.860;2023-07-13T07:18:46;2.87;;;1.77;;
71288;SDS011;59068;52.502;9.860;2023-07-13T07:21:12;4.17;;;1.40;;
71288;SDS011;59068;52.502;9.860;2023-07-13T07:23:38;3.73;;;1.20;;
71288;SDS011;59068;52.502;9.860;2023-07-13T07:26:03;4.10;;;1.30;;
71288;SDS011;59068;52.502;9.860;2023-07-13T07:28:29;5.37;;;1.70;;
71288;SDS011;59068;52.502;9.860;2023-07-13T07:30:55;3.33;;;1.37;;
71288;SDS011;59068;52.502;9.860;2023-07-13T07:33:21;2.60;;;1.20;;
71288;SDS011;59068;52.502;9.860;2023-07-13T07:35:47;3.37;;;1.33;;
71288;SDS011;59068;52.502;9.860;2023-07-13T07:38:12;4.47;;;1.67;;
71288;SDS011;59068;52.502;9.860;2023-07-13T07:40:38;2.67;;;1.20;;
71288;SDS011;59068;52.502;9.860;2023-07-13T07:43:05;5.93;;;1.37;;
71288;SDS011;59068;52.502;9.860;2023-07-13T07:45:30;2.53;;;1.30;;
71288;SDS011;59068;52.502;9.860;2023-07-13T07:47:56;3.67;;;1.73;;
71288;SDS011;59068;52.502;9.860;2023-07-13T07:50:24;2.83;;;1.27;;
71288;SDS011;59068;52.502;9.860;2023-07-13T07:52:50;2.37;;;1.27;;
71288;SDS011;59068;52.502;9.860;2023-07-13T07:55:15;3.70;;;1.37;;
71288;SDS011;59068;52.502;9.860;2023-07-13T07:57:41;2.50;;;1.27;;
71288;SDS011;59068;52.502;9.860;2023-07-13T08:00:06;5.70;;;1.63;;
71288;SDS011;59068;52.502;9.860;2023-07-13T08:02:32;5.50;;;1.90;;
71288;SDS011;59068;52.502;9.860;2023-07-13T08:04:57;4.00;;;1.40;;
71288;SDS011;59068;52.502;9.860;2023-07-13T08:07:23;5.10;;;1.53;;
71288;SDS011;59068;52.502;9.860;2023-07-13T08:09:48;3.93;;;1.40;;
71288;SDS011;59068;52.502;9.860;2023-07-13T08:12:17;3.27;;;1.23;;
71288;SDS011;59068;52.502;9.860;2023-07-13T08:14:42;3.27;;;1.47;;
71288;SDS011;59068;52.502;9.860;2023-07-13T08:17:08;3.27;;;1.40;;
71288;SDS011;59068;52.502;9.860;2023-07-13T08:19:33;2.30;;;1.20;;
71288;SDS011;59068;52.502;9.860;2023-07-13T08:21:59;2.43;;;1.13;;
71288;SDS011;59068;52.502;9.860;2023-07-13T08:24:24;3.53;;;1.43;;
71288;SDS011;59068;52.502;9.860;2023-07-13T08:26:50;3.63;;;1.47;;
71288;SDS011;59068;52.502;9.860;2023-07-13T08:29:16;2.77;;;1.10;;
71288;SDS011;59068;52.502;9.860;2023-07-13T08:31:41;2.00;;;1.20;;
71288;SDS011;59068;52.502;9.860;2023-07-13T08:34:06;4.20;;;1.37;;
71288;SDS011;59068;52.502;9.860;2023-07-13T08:36:32;3.27;;;1.40;;
71288;SDS011;59068;52.502;9.860;2023-07-13T08:38:57;3.20;;;1.40;;
71288;SDS011;59068;52.502;9.860;2023-07-13T08:41:23;4.03;;;1.70;;
71288;SDS011;59068;52.502;9.860;2023-07-13T08:43:49;4.13;;;1.50;;
71288;SDS011;59068;52.502;9.860;2023-07-13T08:48:51;3.87;;;1.40;;
71288;SDS011;59068;52.502;9.860;2023-07-13T08:51:31;2.20;;;1.60;;
71288;SDS011;59068;52.502;9.860;2023-07-13T08:54:01;3.17;;;1.47;;
71288;SDS011;59068;52.502;9.860;2023-07-13T08:56:29;3.53;;;1.50;;
71288;SDS011;59068;52.502;9.860;2023-07-13T08:59:00;2.60;;;1.33;;
71288;SDS011;59068;52.502;9.860;2023-07-13T09:04:16;3.13;;;1.40;;
71288;SDS011;59068;52.502;9.860;2023-07-13T09:12:19;1.70;;;1.20;;
71288;SDS011;59068;52.502;9.860;2023-07-13T09:14:54;4.67;;;1.60;;
71288;SDS011;59068;52.502;9.860;2023-07-13T09:20:37;2.67;;;1.43;;
71288;SDS011;59068;52.502;9.860;2023-07-13T09:22:42;3.43;;;1.43;;
71288;SDS011;59068;52.502;9.860;2023-07-13T09:27:44;4.40;;;1.40;;
71288;SDS011;59068;52.502;9.860;2023-07-13T09:32:39;3.50;;;1.40;;
71288;SDS011;59068;52.502;9.860;2023-07-13T09:35:16;3.47;;;1.40;;
71288;SDS011;59068;52.502;9.860;2023-07-13T09:37:44;2.23;;;1.33;;
71288;SDS011;59068;52.502;9.860;2023-07-13T09:40:11;2.80;;;1.30;;
71288;SDS011;59068;52.502;9.860;2023-07-13T09:42:43;2.47;;;1.40;;
71288;SDS011;59068;52.502;9.860;2023-07-13T09:45:09;3.57;;;1.33;;
71288;SDS011;59068;52.502;9.860;2023-07-13T09:47:38;1.87;;;1.27;;
71288;SDS011;59068;52.502;9.860;2023-07-13T09:50:12;3.83;;;1.50;;
71288;SDS011;59068;52.502;9.860;2023-07-13T09:52:42;2.63;;;1.13;;
71288;SDS011;59068;52.502;9.860;2023-07-13T09:58:03;4.07;;;1.57;;
71288;SDS011;59068;52.502;9.860;2023-07-13T10:00:30;2.87;;;1.80;;
71288;SDS011;59068;52.502;9.860;2023-07-13T10:03:00;2.33;;;1.40;;
71288;SDS011;59068;52.502;9.860;2023-07-13T10:05:28;1.90;;;1.40;;
71288;SDS011;59068;52.502;9.860;2023-07-13T10:08:02;5.10;;;1.47;;
71288;SDS011;59068;52.502;9.860;2023-07-13T10:10:28;1.63;;;0.90;;
71288;SDS011;59068;52.502;9.860;2023-07-13T10:12:53;3.30;;;1.30;;
71288;SDS011;59068;52.502;9.860;2023-07-13T10:15:19;1.30;;;0.93;;
71288;SDS011;59068;52.502;9.860;2023-07-13T10:17:46;2.10;;;1.40;;
71288;SDS011;59068;52.502;9.860;2023-07-13T10:20:12;2.07;;;1.03;;
71288;SDS011;59068;52.502;9.860;2023-07-13T10:25:25;2.20;;;1.00;;
71288;SDS011;59068;52.502;9.860;2023-07-13T10:27:52;4.40;;;1.40;;
71288;SDS011;59068;52.502;9.860;2023-07-13T10:30:30;2.20;;;1.17;;
71288;SDS011;59068;52.502;9.860;2023-07-13T10:32:58;2.37;;;1.33;;
71288;SDS011;59068;52.502;9.860;2023-07-13T10:35:25;2.77;;;1.30;;
71288;SDS011;59068;52.502;9.860;2023-07-13T10:40:42;4.23;;;1.27;;
71288;SDS011;59068;52.502;9.860;2023-07-13T10:43:26;2.53;;;1.20;;
71288;SDS011;59068;52.502;9.860;2023-07-13T10:45:53;3.60;;;1.40;;
71288;SDS011;59068;52.502;9.860;2023-07-13T10:48:19;2.20;;;1.40;;
71288;SDS011;59068;52.502;9.860;2023-07-13T10:50:46;3.97;;;1.20;;
71288;SDS011;59068;52.502;9.860;2023-07-13T10:58:19;1.20;;;0.90;;
71288;SDS011;59068;52.502;9.860;2023-07-13T11:03:32;2.50;;;1.30;;
71288;SDS011;59068;52.502;9.860;2023-07-13T11:06:11;2.03;;;1.27;;
71288;SDS011;59068;52.502;9.860;2023-07-13T11:18:53;1.17;;;0.87;;
71288;SDS011;59068;52.502;9.860;2023-07-13T11:27:36;2.70;;;1.10;;
71288;SDS011;59068;52.502;9.860;2023-07-13T11:32:51;2.27;;;1.43;;
71288;SDS011;59068;52.502;9.860;2023-07-13T11:38:37;1.53;;;1.00;;
71288;SDS011;59068;52.502;9.860;2023-07-13T11:41:06;1.70;;;1.07;;
71288;SDS011;59068;52.502;9.860;2023-07-13T11:43:37;1.97;;;1.03;;
71288;SDS011;59068;52.502;9.860;2023-07-13T11:46:13;1.10;;;1.00;;
71288;SDS011;59068;52.502;9.860;2023-07-13T11:48:39;1.10;;;0.90;;
71288;SDS011;59068;52.502;9.860;2023-07-13T11:51:06;1.30;;;1.10;;
71288;SDS011;59068;52.502;9.860;2023-07-13T11:53:40;3.83;;;1.30;;
71288;SDS011;59068;52.502;9.860;2023-07-13T11:56:09;2.57;;;1.23;;
71288;SDS011;59068;52.502;9.860;2023-07-13T11:58:34;2.40;;;1.20;;
71288;SDS011;59068;52.502;9.860;2023-07-13T12:01:00;1.87;;;1.10;;
71288;SDS011;59068;52.502;9.860;2023-07-13T12:03:30;2.53;;;1.00;;
71288;SDS011;59068;52.502;9.860;2023-07-13T12:06:03;2.10;;;1.13;;
71288;SDS011;59068;52.502;9.860;2023-07-13T12:08:37;2.17;;;1.10;;
71288;SDS011;59068;52.502;9.860;2023-07-13T12:11:05;1.10;;;0.80;;
71288;SDS011;59068;52.502;9.860;2023-07-13T12:13:39;0.97;;;0.90;;
71288;SDS011;59068;52.502;9.860;2023-07-13T12:16:11;1.83;;;1.10;;
71288;SDS011;59068;52.502;9.860;2023-07-13T12:18:39;3.03;;;1.30;;
71288;SDS011;59068;52.502;9.860;2023-07-13T12:21:05;1.53;;;1.20;;
71288;SDS011;59068;52.502;9.860;2023-07-13T12:23:33;1.73;;;1.07;;
71288;SDS011;59068;52.502;9.860;2023-07-13T12:26:01;2.93;;;1.33;;
71288;SDS011;59068;52.502;9.860;2023-07-13T12:31:00;2.03;;;1.10;;
71288;SDS011;59068;52.502;9.860;2023-07-13T12:33:30;1.60;;;1.30;;
71288;SDS011;59068;52.502;9.860;2023-07-13T12:35:57;1.53;;;0.77;;
71288;SDS011;59068;52.502;9.860;2023-07-13T12:38:24;2.00;;;0.97;;
71288;SDS011;59068;52.502;9.860;2023-07-13T12:40:50;1.60;;;1.03;;
71288;SDS011;59068;52.502;9.860;2023-07-13T12:43:16;2.00;;;1.00;;
71288;SDS011;59068;52.502;9.860;2023-07-13T12:48:27;1.83;;;1.03;;
71288;SDS011;59068;52.502;9.860;2023-07-13T12:50:53;2.00;;;1.00;;
71288;SDS011;59068;52.502;9.860;2023-07-13T12:53:22;1.27;;;1.10;;
71288;SDS011;59068;52.502;9.860;2023-07-13T12:55:50;2.27;;;1.20;;
71288;SDS011;59068;52.502;9.860;2023-07-13T12:58:22;2.33;;;1.23;;
71288;SDS011;59068;52.502;9.860;2023-07-13T13:00:53;1.03;;;0.87;;
71288;SDS011;59068;52.502;9.860;2023-07-13T13:03:29;2.10;;;1.13;;
71288;SDS011;59068;52.502;9.860;2023-07-13T13:06:44;1.00;;;0.93;;
71288;SDS011;59068;52.502;9.860;2023-07-13T13:08:53;3.53;;;1.20;;
71288;SDS011;59068;52.502;9.860;2023-07-13T13:11:20;1.50;;;1.10;;
71288;SDS011;59068;52.502;9.860;2023-07-13T13:13:48;2.80;;;1.30;;
71288;SDS011;59068;52.502;9.860;2023-07-13T13:18:52;1.97;;;1.53;;
71288;SDS011;59068;52.502;9.860;2023-07-13T13:21:18;1.30;;;1.20;;
71288;SDS011;59068;52.502;9.860;2023-07-13T13:23:45;3.67;;;1.50;;
71288;SDS011;59068;52.502;9.860;2023-07-13T13:26:12;2.30;;;1.67;;
71288;SDS011;59068;52.502;9.860;2023-07-13T13:28:40;2.10;;;1.67;;
71288;SDS011;59068;52.502;9.860;2023-07-13T13:31:07;3.07;;;1.70;;
71288;SDS011;59068;52.502;9.860;2023-07-13T13:33:38;3.03;;;1.60;;
71288;SDS011;59068;52.502;9.860;2023-07-13T13:36:17;3.17;;;1.80;;
71288;SDS011;59068;52.502;9.860;2023-07-13T13:38:44;2.30;;;1.50;;
71288;SDS011;59068;52.502;9.860;2023-07-13T13:41:10;3.13;;;1.80;;
71288;SDS011;59068;52.502;9.860;2023-07-13T13:43:38;3.03;;;1.50;;
71288;SDS011;59068;52.502;9.860;2023-07-13T13:46:08;1.93;;;1.30;;
71288;SDS011;59068;52.502;9.860;2023-07-13T13:48:38;1.90;;;1.70;;
71288;SDS011;59068;52.502;9.860;2023-07-13T13:51:15;1.80;;;1.20;;
71288;SDS011;59068;52.502;9.860;2023-07-13T13:53:43;1.50;;;1.40;;
71288;SDS011;59068;52.502;9.860;2023-07-13T13:56:08;2.03;;;1.80;;
71288;SDS011;59068;52.502;9.860;2023-07-13T13:58:34;2.93;;;1.70;;
71288;SDS011;59068;52.502;9.860;2023-07-13T14:00:59;3.10;;;2.07;;
71288;SDS011;59068;52.502;9.860;2023-07-13T14:03:24;2.07;;;1.33;;
71288;SDS011;59068;52.502;9.860;2023-07-13T14:05:50;1.80;;;1.30;;
71288;SDS011;59068;52.502;9.860;2023-07-13T14:08:18;2.17;;;1.57;;
71288;SDS011;59068;52.502;9.860;2023-07-13T14:10:45;1.77;;;1.53;;
71288;SDS011;59068;52.502;9.860;2023-07-13T14:13:18;2.60;;;1.43;;
71288;SDS011;59068;52.502;9.860;2023-07-13T14:15:46;2.53;;;1.50;;
71288;SDS011;59068;52.502;9.860;2023-07-13T14:18:12;2.40;;;1.40;;
71288;SDS011;59068;52.502;9.860;2023-07-13T14:20:42;2.40;;;1.20;;
71288;SDS011;59068;52.502;9.860;2023-07-13T14:23:09;2.27;;;1.67;;
71288;SDS011;59068;52.502;9.860;2023-07-13T14:25:34;1.43;;;1.33;;
71288;SDS011;59068;52.502;9.860;2023-07-13T14:28:03;1.97;;;1.30;;
71288;SDS011;59068;52.502;9.860;2023-07-13T14:30:35;1.10;;;1.00;;
71288;SDS011;59068;52.502;9.860;2023-07-13T14:33:01;1.10;;;1.10;;
71288;SDS011;59068;52.502;9.860;2023-07-13T14:35:26;2.63;;;1.70;;
71288;SDS011;59068;52.502;9.860;2023-07-13T14:37:52;2.03;;;1.20;;
71288;SDS011;59068;52.502;9.860;2023-07-13T14:40:19;1.50;;;1.40;;
71288;SDS011;59068;52.502;9.860;2023-07-13T14:42:51;1.23;;;1.17;;
71288;SDS011;59068;52.502;9.860;2023-07-13T14:45:17;1.93;;;1.37;;
71288;SDS011;59068;52.502;9.860;2023-07-13T14:47:43;1.20;;;1.10;;
71288;SDS011;59068;52.502;9.860;2023-07-13T14:50:13;1.50;;;1.30;;
71288;SDS011;59068;52.502;9.860;2023-07-13T14:52:39;1.77;;;1.00;;
71288;SDS011;59068;52.502;9.860;2023-07-13T14:55:08;1.63;;;1.20;;
71288;SDS011;59068;52.502;9.860;2023-07-13T14:57:35;1.23;;;1.10;;
71288;SDS011;59068;52.502;9.860;2023-07-13T15:00:00;2.50;;;1.57;;
71288;SDS011;59068;52.502;9.860;2023-07-13T15:02:35;2.00;;;1.37;;
71288;SDS011;59068;52.502;9.860;2023-07-13T15:05:04;1.43;;;1.17;;
71288;SDS011;59068;52.502;9.860;2023-07-13T15:07:37;1.30;;;1.20;;
71288;SDS011;59068;52.502;9.860;2023-07-13T15:10:04;2.00;;;1.30;;
71288;SDS011;59068;52.502;9.860;2023-07-13T15:12:39;2.10;;;1.50;;
71288;SDS011;59068;52.502;9.860;2023-07-13T15:15:04;1.60;;;1.50;;
71288;SDS011;59068;52.502;9.860;2023-07-13T15:20:02;1.40;;;1.30;;
71288;SDS011;59068;52.502;9.860;2023-07-13T15:22:30;1.97;;;1.60;;
71288;SDS011;59068;52.502;9.860;2023-07-13T15:24:56;1.50;;;1.33;;
71288;SDS011;59068;52.502;9.860;2023-07-13T15:27:21;1.77;;;1.60;;
71288;SDS011;59068;52.502;9.860;2023-07-13T15:29:46;1.57;;;1.47;;
71288;SDS011;59068;52.502;9.860;2023-07-13T15:32:15;2.20;;;1.50;;
71288;SDS011;59068;52.502;9.860;2023-07-13T15:34:40;1.93;;;1.60;;
71288;SDS011;59068;52.502;9.860;2023-07-13T15:37:12;1.87;;;1.47;;
71288;SDS011;59068;52.502;9.860;2023-07-13T15:39:39;2.37;;;1.53;;
71288;SDS011;59068;52.502;9.860;2023-07-13T15:42:07;2.27;;;1.87;;
71288;SDS011;59068;52.502;9.860;2023-07-13T15:44:38;1.40;;;1.30;;
71288;SDS011;59068;52.502;9.860;2023-07-13T15:47:03;3.20;;;1.70;;
71288;SDS011;59068;52.502;9.860;2023-07-13T15:49:29;1.50;;;1.40;;
71288;SDS011;59068;52.502;9.860;2023-07-13T15:51:54;1.67;;;1.50;;
71288;SDS011;59068;52.502;9.860;2023-07-13T15:54:20;1.63;;;1.53;;